Terminal Aerodrome Forecast
Issued by NWS Mt. Holly, NJ

Home | Current Version | Previous Version | Text Only | Print | Product List | Glossary On
Versions: 1 2 3 4 5 6 7 8 9 10 11 12 13 14 15 16 17 18 19 20 21 22 23 24 25 26 27 28 29 30 31 32 33 34 35 36 37 38 39 40 41 42 43 44 45 46 47
000
FTUS41 KPHI 310827 AAA
TAFABE
TAF AMD
KABE 310827Z 3108/0106 08006KT 5SM BR SCT015 OVC040
      TEMPO 3108/3111 BKN015
     FM311100 VRB03KT 3SM BR OVC007
     FM311500 VRB03KT 4SM BR OVC015
     FM311700 19005KT P6SM BKN035
     FM311900 21006KT P6SM BKN050
     FM010000 VRB03KT 6SM BR OVC250 PROB30 0100/0102 P6SM TS
      BKN050CB=

USA.gov is the U.S. government's official web portal to all federal, state and local government web resources and services.